Alliance, Nebraska
Current Conditions -  °F | °C
As of 10:53 PM on Monday 20 Oct 2014 (Local Time) from KAIA Reporting Station
Clear Clear  
Wind Chill: 41°   Ceiling: Unl
Heat Index: 46°   Visibility: 10mi
Dew Point: 38°   Wind: 10mph
Humidity: 73%   Direction: 160°SSE
Pressure: 30.01"   Gusts: NA
Location:  42.1°N, 102.87°W
Report Text: KAIA 210453Z AUTO 16009KT 10SM CLR 08/03 A3001 RMK AO2 SLP141 T00780033
Loading
Personal Weather Stations






























Interactive Weather Map New forecast layout! Learn more

10-Day Weather Forecast

Advertisements
Track Severe Weather on mobile